Latest Weather Observations for Viewbank

IDV60901

Issued at 8:15 pm EST Sunday 31 August 2014 (issued every 10 minutes, with the page automatically refreshed every 10 minutes)

About weather observations | Map of Melbourne area stations | Latest observations for Melbourne area | Other Formats
Station Details ID: 086068 Name: VIEWBANK Lat: -37.74 Lon: 145.10 Height: 66.1 m
Data from the previous 72 hours. | See also: Recent months at Viewbank
Date/Time
EST
Tmp

°C
App
Tmp
°C
Dew
Point
°C
Rel
Hum
%
Delta-T

°C
Wind Press
QNH
hPa
Press
MSL
hPa
Rain
since
9 am
mm
Dir
 
Spd
km/h
Gust
km/h
Spd
kts
Gust
kts
31/08:00pm 16.7 13.9 7.1 53 4.8 NE 11 20 6 11 1013.4 1013.4 0.0
31/07:30pm 16.8 14.1 7.4 54 4.7 NE 11 19 6 10 1013.5 1013.5 0.0
31/07:00pm 16.6 13.9 7.3 54 4.6 NE 11 20 6 11 1013.5 1013.5 0.0
31/06:30pm 16.5 14.2 7.4 55 4.6 NE 9 17 5 9 1013.9 1013.9 0.0
31/06:00pm 17.1 14.7 7.2 52 5.0 NE 9 15 5 8 1014.2 1014.2 0.0
31/05:30pm 17.6 15.2 7.1 50 5.3 NNE 9 19 5 10 1014.2 1014.2 0.0
31/05:00pm 18.2 15.3 6.7 47 5.7 NNE 11 26 6 14 1014.2 1014.2 0.0
31/04:30pm 18.8 14.3 6.3 44 6.2 N 19 32 10 17 1013.9 1013.9 0.0
31/04:00pm 18.9 15.2 6.4 44 6.2 N 15 28 8 15 1014.0 1014.0 0.0
31/03:30pm 19.8 14.3 5.8 40 6.9 N 24 39 13 21 1014.6 1014.6 0.0
31/03:00pm 19.6 14.3 7.0 44 6.4 N 24 39 13 21 1014.9 1014.9 0.0
31/02:30pm 19.8 15.1 6.2 41 6.8 N 20 35 11 19 1015.2 1015.2 0.0
31/02:00pm 19.5 13.2 5.9 41 6.7 N 28 44 15 24 1015.4 1015.4 0.0
31/01:30pm 19.5 12.5 5.9 41 6.7 N 32 50 17 27 1015.7 1015.7 0.0
31/01:00pm 19.4 12.4 5.8 41 6.7 N 32 52 17 28 1016.1 1016.1 0.0
31/12:48pm 19.0 12.7 5.5 41 6.6 N 28 50 15 27 1016.3 1016.3 0.0
31/12:30pm 19.4 13.1 5.8 41 6.7 N 28 44 15 24 1016.5 1016.5 0.0
31/12:00pm 19.3 14.5 5.7 41 6.7 N 20 41 11 22 1017.0 1017.1 0.0
31/11:30am 18.8 13.6 5.6 42 6.5 N 22 43 12 23 1017.5 1017.6 0.0
31/11:00am 18.7 14.2 5.9 43 6.3 N 19 35 10 19 1017.9 1018.0 0.0
31/10:30am 17.9 12.8 5.8 45 5.9 N 22 43 12 23 1018.3 1018.4 0.0
31/10:00am 17.3 13.5 5.9 47 5.6 N 15 26 8 14 1018.6 1018.7 0.0
31/09:30am 16.5 12.8 6.1 50 5.1 N 15 28 8 15 1019.2 1019.3 0.0
31/09:00am 14.2 12.4 9.4 73 2.5 ENE 9 15 5 8 1019.2 1019.3 0.0
31/08:30am 11.3 10.0 10.0 92 0.7 ENE 7 11 4 6 1019.4 1019.5 0.0
31/08:00am 8.2 6.4 8.1 99 0.0 ENE 7 11 4 6 1019.4 1019.5 0.0
31/07:30am 7.0 5.1 6.9 99 0.0 ENE 6 7 3 4 1019.7 1019.8 0.0
31/07:00am 6.2 4.0 6.1 99 0.0 NE 7 9 4 5 1019.5 1019.6 0.0
31/06:30am 6.6 4.5 6.6 100 0.0 ENE 7 9 4 5 1019.4 1019.5 0.0
31/06:00am 6.7 4.6 6.6 99 0.0 ENE 7 11 4 6 1019.1 1019.2 0.0
31/05:30am 6.4 4.2 6.3 99 0.0 NE 7 9 4 5 1018.8 1018.9 0.0
31/05:00am 6.8 5.7 6.7 99 0.0 ENE 2 7 1 4 1018.9 1019.0 0.0
31/04:30am 6.9 5.0 6.8 99 0.0 NE 6 9 3 5 1018.9 1019.0 0.0
31/04:00am 7.0 5.1 6.9 99 0.0 NE 6 9 3 5 1019.0 1019.1 0.0
31/03:30am 7.4 5.6 7.3 99 0.0 NE 6 9 3 5 1019.0 1019.1 0.0
31/03:00am 7.4 5.6 7.3 99 0.0 NE 6 9 3 5 1019.1 1019.2 0.0
31/02:30am 7.9 6.6 7.8 99 0.0 NE 4 6 2 3 1019.5 1019.6 0.0
31/02:00am 8.2 7.8 8.1 99 0.0 CALM 0 6 0 3 1019.8 1019.9 0.0
31/01:30am 8.9 6.9 8.8 99 0.0 ENE 9 13 5 7 1020.1 1020.2 0.0
31/01:00am 9.1 7.2 9.0 99 0.0 ENE 9 13 5 7 1020.3 1020.4 0.0
31/12:30am 9.4 7.5 9.1 98 0.1 ENE 9 11 5 6 1020.4 1020.5 0.0
31/12:00am 9.3 7.6 8.5 95 0.4 ENE 7 9 4 5 1020.5 1020.6 0.0
 
Date/Time
EST
Tmp

°C
App
Tmp
°C
Dew
Point
°C
Rel
Hum
%
Delta-T

°C
Wind Press
QNH
hPa
Press
MSL
hPa
Rain
since
9 am
mm
Dir
 
Spd
km/h
Gust
km/h
Spd
kts
Gust
kts
30/11:30pm 9.7 8.1 8.9 95 0.4 ENE 7 9 4 5 1020.9 1021.0 0.0
30/11:00pm 10.1 7.7 8.7 91 0.7 ENE 11 13 6 7 1021.2 1021.3 0.0
30/10:30pm 10.8 9.1 8.4 85 1.2 NE 7 9 4 5 1021.7 1021.8 0.0
30/10:00pm 11.5 11.0 8.0 79 1.7 CALM 0 0 0 0 1021.9 1022.0 0.0
30/09:30pm 12.4 11.6 8.1 75 2.1 NE 2 6 1 3 1022.0 1022.1 0.0
30/09:00pm 12.9 12.1 8.0 72 2.4 NE 2 6 1 3 1022.0 1022.1 0.0
30/08:30pm 13.9 12.3 8.1 68 2.9 N 6 9 3 5 1021.9 1022.0 0.0
30/08:00pm 14.4 13.9 7.7 64 3.3 CALM 0 0 0 0 1021.7 1021.8 0.0
30/07:30pm 15.2 13.4 8.0 62 3.6 N 7 11 4 6 1021.5 1021.6 0.0
30/07:00pm 15.5 15.0 7.8 60 3.8 CALM 0 2 0 1 1021.4 1021.5 0.0
30/06:30pm 16.4 15.2 7.9 57 4.3 NNE 4 6 2 3 1021.6 1021.7 0.0
30/06:00pm 17.0 15.4 7.9 55 4.6 NNE 6 9 3 5 1021.6 1021.7 0.0
30/05:30pm 17.8 15.7 8.1 53 5.0 N 9 19 5 10 1021.6 1021.7 0.0
30/05:00pm 18.6 16.1 8.0 50 5.4 N 11 17 6 9 1021.7 1021.8 0.0
30/04:30pm 19.2 16.2 7.6 47 5.9 N 13 24 7 13 1021.7 1021.8 0.0
30/04:00pm 19.4 16.2 8.4 49 5.7 N 15 26 8 14 1021.6 1021.7 0.0
30/03:30pm 19.6 15.2 6.7 43 6.5 NNW 19 28 10 15 1021.8 1021.9 0.0
30/03:00pm 20.1 16.6 8.8 48 5.9 NNW 17 28 9 15 1021.8 1021.9 0.0
30/02:30pm 19.8 15.7 7.9 46 6.1 NNW 19 28 10 15 1022.1 1022.2 0.0
30/02:00pm 19.6 15.1 7.0 44 6.4 N 20 32 11 17 1022.3 1022.4 0.0
30/01:30pm 19.6 15.8 7.4 45 6.2 NNW 17 26 9 14 1022.7 1022.8 0.0
30/01:00pm 19.2 14.8 6.7 44 6.3 NNW 19 32 10 17 1023.2 1023.3 0.0
30/12:30pm 19.5 15.8 7.9 47 6.0 NNW 17 28 9 15 1023.5 1023.6 0.0
30/12:00pm 18.7 14.8 6.9 46 5.9 NNW 17 28 9 15 1023.8 1023.9 0.0
30/11:30am 18.3 16.2 9.9 58 4.5 N 11 20 6 11 1024.4 1024.5 0.0
30/11:00am 16.3 15.2 10.6 69 3.0 ENE 7 11 4 6 1024.9 1025.0 0.0
30/10:30am 14.4 12.8 10.2 76 2.2 ENE 9 11 5 6 1025.4 1025.5 0.0
30/10:00am 12.4 11.4 10.3 87 1.1 NE 6 11 3 6 1025.9 1026.0 0.0
30/09:30am 11.7 10.7 11.1 96 0.3 E 7 9 4 5 1026.2 1026.3 0.0
30/09:00am 11.3 10.5 11.1 99 0.1 NE 6 11 3 6 1026.3 1026.4 0.0
30/08:30am 10.9 9.8 10.7 99 0.1 ENE 7 11 4 6 1026.4 1026.5 0.0
30/08:00am 10.7 10.1 10.5 99 0.1 ENE 4 7 2 4 1026.3 1026.4 0.0
30/07:30am 10.5 9.5 10.3 99 0.1 ENE 6 9 3 5 1026.2 1026.3 0.0
30/07:00am 10.6 9.4 10.4 99 0.1 ENE 7 11 4 6 1025.8 1025.9 0.0
30/06:30am 10.6 10.0 10.4 99 0.1 NE 4 9 2 5 1025.7 1025.8 0.0
30/06:00am 10.8 9.7 10.6 99 0.1 ENE 7 11 4 6 1025.5 1025.6 0.0
30/05:30am 10.8 9.9 10.6 99 0.1 NNE 6 9 3 5 1025.6 1025.7 0.0
30/05:00am 11.1 11.4 10.9 99 0.1 CALM 0 0 0 0 1025.5 1025.6 0.0
30/04:30am 11.1 11.0 10.9 99 0.1 WNW 2 7 1 4 1025.6 1025.7 0.0
30/04:00am 11.1 11.5 11.1 100 0.0 CALM 0 0 0 0 1025.6 1025.7 0.0
30/03:30am 11.0 11.3 11.0 100 0.0 CALM 0 0 0 0 1025.7 1025.8 0.0
30/03:00am 11.0 11.3 11.0 100 0.0 CALM 0 0 0 0 1025.9 1026.0 0.0
30/02:30am 11.1 11.4 10.9 99 0.1 CALM 0 0 0 0 1026.1 1026.2 0.0
30/02:00am 11.1 11.4 10.9 99 0.1 CALM 0 2 0 1 1026.3 1026.4 0.0
30/01:30am 11.1 11.5 11.1 100 0.0 CALM 0 0 0 0 1026.5 1026.6 0.0
30/01:00am 11.2 11.6 11.2 100 0.0 CALM 0 0 0 0 1026.8 1026.9 0.0
30/12:30am 11.2 11.6 11.2 100 0.0 CALM 0 0 0 0 1027.0 1027.1 0.0
30/12:00am 11.2 11.6 11.2 100 0.0 CALM 0 0 0 0 1027.2 1027.3 0.0
 
Date/Time
EST
Tmp

°C
App
Tmp
°C
Dew
Point
°C
Rel
Hum
%
Delta-T

°C
Wind Press
QNH
hPa
Press
MSL
hPa
Rain
since
9 am
mm
Dir
 
Spd
km/h
Gust
km/h
Spd
kts
Gust
kts
29/11:30pm 11.2 11.6 11.2 100 0.0 CALM 0 7 0 4 1027.4 1027.5 0.0
29/11:00pm 11.1 10.3 11.1 100 0.0 WSW 6 7 3 4 1027.3 1027.4 0.0
29/10:30pm 11.1 10.1 11.1 100 0.0 SW 7 9 4 5 1027.5 1027.6 0.0
29/10:00pm 11.1 9.8 11.1 100 0.0 SW 9 13 5 7 1027.7 1027.8 0.0
29/09:30pm 11.0 9.6 10.8 99 0.1 SW 9 13 5 7 1027.8 1027.9 0.0
29/09:00pm 11.1 9.7 10.9 99 0.1 SW 9 11 5 6 1027.7 1027.8 0.0
29/08:30pm 11.1 10.1 10.9 99 0.1 SW 7 11 4 6 1027.8 1027.9 0.0
29/08:00pm 10.9 9.8 10.7 99 0.1 SW 7 11 4 6 1027.8 1027.9 0.0
29/07:30pm 11.0 9.9 10.7 98 0.2 SW 7 7 4 4 1027.8 1027.9 0.0
29/07:00pm 11.1 10.0 10.6 97 0.3 SW 7 11 4 6 1027.8 1027.9 0.0
29/06:30pm 11.1 9.4 9.9 92 0.6 SW 9 11 5 6 1027.5 1027.6 0.0
29/06:00pm 12.0 10.3 9.9 87 1.1 SW 9 13 5 7 1027.4 1027.5 0.0
29/05:30pm 12.6 11.1 9.2 80 1.7 SSW 7 9 4 5 1027.4 1027.5 0.0
29/05:00pm 13.2 11.3 8.9 75 2.2 S 9 15 5 8 1027.4 1027.5 0.0
29/04:30pm 13.8 12.4 8.8 72 2.5 SSE 6 13 3 7 1027.3 1027.4 0.0
29/04:00pm 14.1 12.3 9.5 74 2.3 S 9 13 5 7 1027.4 1027.5 0.0
29/03:30pm 13.9 12.6 9.1 73 2.4 SE 6 9 3 5 1027.4 1027.5 0.0
29/03:00pm 13.9 12.7 9.5 75 2.2 ESE 6 9 3 5 1027.5 1027.6 0.0
29/02:30pm 13.9 12.7 9.5 75 2.3 ESE 6 11 3 6 1027.7 1027.8 0.0
29/02:00pm 13.8 12.5 9.8 77 2.1 SE 7 9 4 5 1027.9 1028.0 0.0
29/01:30pm 12.8 11.7 10.0 83 1.4 SW 6 7 3 4 1028.4 1028.4 0.0
29/01:00pm 12.7 11.6 9.9 83 1.4 ENE 6 7 3 4 1028.7 1028.7 0.0
29/12:30pm 12.2 11.1 10.1 87 1.1 S 6 9 3 5 1029.1 1029.1 0.0
29/12:00pm 12.0 11.1 10.7 92 0.7 E 6 7 3 4 1029.6 1029.7 0.0
29/11:30am 12.0 12.2 11.8 99 0.1 N 2 7 1 4 1029.9 1030.0 0.0
29/11:00am 10.8 9.9 10.8 100 0.0 NE 6 7 3 4 1030.0 1030.1 0.0
29/10:30am 9.9 8.8 9.9 100 0.0 NNE 6 9 3 5 1030.2 1030.3 0.0
29/10:00am 9.6 9.5 9.6 100 0.0 CALM 0 0 0 0 1030.3 1030.4 0.0
29/09:30am 9.3 8.4 9.3 100 0.0 E 4 7 2 4 1030.2 1030.3 0.0
29/09:00am 9.1 8.5 9.1 100 0.0 E 2 6 1 3 1030.2 1030.3 0.0
29/08:30am 8.9 7.5 8.9 100 0.0 E 6 9 3 5 1029.9 1030.0 0.0
29/08:00am 8.7 8.4 8.7 100 0.0 CALM 0 0 0 0 1029.7 1029.8 0.0
29/07:30am 8.3 7.9 8.3 100 0.0 CALM 0 6 0 3 1029.6 1029.7 0.0
29/07:00am 8.1 6.5 8.1 100 0.0 W 6 9 3 5 1029.2 1029.2 0.0
29/06:30am 8.0 6.4 8.0 100 0.0 NW 6 7 3 4 1028.8 1028.8 0.0
29/06:00am 8.1 7.7 8.1 100 0.0 CALM 0 0 0 0 1028.4 1028.4 0.0
29/05:30am 8.2 7.4 8.2 100 0.0 N 2 7 1 4 1028.3 1028.3 0.0
29/05:00am 8.0 7.2 8.0 100 0.0 N 2 6 1 3 1028.2 1028.2 0.0
29/04:30am 7.8 6.9 7.7 99 0.0 N 2 6 1 3 1028.4 1028.4 0.0
29/04:00am 7.8 7.3 7.7 99 0.0 CALM 0 0 0 0 1028.5 1028.5 0.0
29/03:30am 7.4 6.4 7.3 99 0.0 N 2 6 1 3 1028.4 1028.4 0.0
29/03:00am 7.2 6.5 7.1 99 0.0 CALM 0 6 0 3 1028.4 1028.4 0.0
29/02:30am 7.2 6.5 7.1 99 0.0 CALM 0 0 0 0 1028.5 1028.5 0.0
29/02:00am 6.8 6.0 6.7 99 0.0 CALM 0 0 0 0 1028.4 1028.4 0.0
29/01:30am 7.4 6.4 7.3 99 0.0 N 2 6 1 3 1028.5 1028.5 0.0
29/01:00am 8.2 6.6 8.1 99 0.0 N 6 9 3 5 1028.5 1028.5 0.0
29/12:30am 8.1 6.7 7.3 95 0.4 W 4 6 2 3 1028.5 1028.5 0.0
29/12:00am 8.4 7.8 7.5 94 0.4 CALM 0 6 0 3 1028.7 1028.7 0.0
 
Date/Time
EST
Tmp

°C
App
Tmp
°C
Dew
Point
°C
Rel
Hum
%
Delta-T

°C
Wind Press
QNH
hPa
Press
MSL
hPa
Rain
since
9 am
mm
Dir
 
Spd
km/h
Gust
km/h
Spd
kts
Gust
kts
28/11:30pm 9.3 8.7 7.4 88 0.9 CALM 0 0 0 0 1028.6 1028.6 0.0
28/11:00pm 9.7 9.0 6.8 82 1.4 CALM 0 0 0 0 1028.7 1028.7 0.0
28/10:30pm 10.6 9.2 7.1 79 1.7 W 4 6 2 3 1028.8 1028.8 0.0
28/10:00pm 10.6 9.5 7.1 79 1.7 W 2 7 1 4 1028.7 1028.7 0.0
28/09:30pm 11.4 9.5 6.7 73 2.2 W 6 6 3 3 1028.7 1028.7 0.0
28/09:00pm 12.6 10.8 7.1 69 2.6 W 6 7 3 4 1028.6 1028.6 0.0
28/08:30pm 12.8 10.9 6.8 67 2.9 SW 6 7 3 4 1028.4 1028.4 0.0

Latest Capital City Observations: Canberra | Sydney | Melbourne | Brisbane | Adelaide | Perth | Hobart | Darwin

Other Formats:

Comma delimited format used in spreadsheet applications
http://www.bom.gov.au/fwo/IDV60901/IDV60901.95874.axf

JavaScript Object Notation format (JSON) in row-major order
http://www.bom.gov.au/fwo/IDV60901/IDV60901.95874.json